sensor_id;sensor_type;location;lat;lon;timestamp;temperature;humidity
33368;DHT22;19724;51.114;13.906;2023-03-08T00:01:13;0.70;99.90
33368;DHT22;19724;51.114;13.906;2023-03-08T00:03:39;0.80;99.90
33368;DHT22;19724;51.114;13.906;2023-03-08T00:06:06;0.80;99.90
33368;DHT22;19724;51.114;13.906;2023-03-08T00:08:35;0.70;99.90
33368;DHT22;19724;51.114;13.906;2023-03-08T00:11:04;0.70;99.90
33368;DHT22;19724;51.114;13.906;2023-03-08T00:13:37;0.70;99.90
33368;DHT22;19724;51.114;13.906;2023-03-08T00:16:17;0.70;99.90
33368;DHT22;19724;51.114;13.906;2023-03-08T00:18:51;0.70;99.90
33368;DHT22;19724;51.114;13.906;2023-03-08T00:21:17;0.80;99.90
33368;DHT22;19724;51.114;13.906;2023-03-08T00:23:43;0.80;99.90
33368;DHT22;19724;51.114;13.906;2023-03-08T00:26:10;0.80;99.90
33368;DHT22;19724;51.114;13.906;2023-03-08T00:28:44;0.80;99.90
33368;DHT22;19724;51.114;13.906;2023-03-08T00:31:13;0.80;99.90
33368;DHT22;19724;51.114;13.906;2023-03-08T00:33:39;0.80;99.90
33368;DHT22;19724;51.114;13.906;2023-03-08T00:36:14;0.80;99.90
33368;DHT22;19724;51.114;13.906;2023-03-08T00:38:39;0.80;99.90
33368;DHT22;19724;51.114;13.906;2023-03-08T00:41:05;0.80;99.90
33368;DHT22;19724;51.114;13.906;2023-03-08T00:43:31;0.70;99.90
33368;DHT22;19724;51.114;13.906;2023-03-08T00:45:57;0.70;99.90
33368;DHT22;19724;51.114;13.906;2023-03-08T00:48:23;0.60;99.90
33368;DHT22;19724;51.114;13.906;2023-03-08T00:50:48;0.60;99.90
33368;DHT22;19724;51.114;13.906;2023-03-08T00:53:14;0.70;99.90
33368;DHT22;19724;51.114;13.906;2023-03-08T00:55:50;0.70;99.90
33368;DHT22;19724;51.114;13.906;2023-03-08T00:58:16;0.70;99.90
33368;DHT22;19724;51.114;13.906;2023-03-08T01:00:42;0.60;99.90
33368;DHT22;19724;51.114;13.906;2023-03-08T01:03:07;0.70;99.90
33368;DHT22;19724;51.114;13.906;2023-03-08T01:05:37;0.70;99.90
33368;DHT22;19724;51.114;13.906;2023-03-08T01:08:02;0.70;99.90
33368;DHT22;19724;51.114;13.906;2023-03-08T01:10:29;0.60;99.90
33368;DHT22;19724;51.114;13.906;2023-03-08T01:12:54;0.70;99.90
33368;DHT22;19724;51.114;13.906;2023-03-08T01:15:20;0.70;99.90
33368;DHT22;19724;51.114;13.906;2023-03-08T01:17:45;0.80;99.90
33368;DHT22;19724;51.114;13.906;2023-03-08T01:20:11;0.70;99.90
33368;DHT22;19724;51.114;13.906;2023-03-08T01:22:36;0.70;99.90
33368;DHT22;19724;51.114;13.906;2023-03-08T01:25:02;0.70;99.90
33368;DHT22;19724;51.114;13.906;2023-03-08T01:27:28;0.70;99.90
33368;DHT22;19724;51.114;13.906;2023-03-08T01:29:53;0.70;99.90
33368;DHT22;19724;51.114;13.906;2023-03-08T01:32:18;0.80;99.90
33368;DHT22;19724;51.114;13.906;2023-03-08T01:34:44;0.70;99.90
33368;DHT22;19724;51.114;13.906;2023-03-08T01:37:09;0.70;99.90
33368;DHT22;19724;51.114;13.906;2023-03-08T01:39:35;0.70;99.90
33368;DHT22;19724;51.114;13.906;2023-03-08T01:42:02;0.80;99.90
33368;DHT22;19724;51.114;13.906;2023-03-08T01:44:57;0.80;99.90
33368;DHT22;19724;51.114;13.906;2023-03-08T01:47:25;0.70;99.90
33368;DHT22;19724;51.114;13.906;2023-03-08T01:49:53;0.70;99.90
33368;DHT22;19724;51.114;13.906;2023-03-08T01:52:33;0.80;99.90
33368;DHT22;19724;51.114;13.906;2023-03-08T01:55:03;0.80;99.90
33368;DHT22;19724;51.114;13.906;2023-03-08T01:57:40;0.80;99.90
33368;DHT22;19724;51.114;13.906;2023-03-08T02:00:21;0.70;99.90
33368;DHT22;19724;51.114;13.906;2023-03-08T02:02:56;0.70;99.90
33368;DHT22;19724;51.114;13.906;2023-03-08T02:05:23;0.60;99.90
33368;DHT22;19724;51.114;13.906;2023-03-08T02:07:48;0.60;99.90
33368;DHT22;19724;51.114;13.906;2023-03-08T02:10:14;0.70;99.90
33368;DHT22;19724;51.114;13.906;2023-03-08T02:12:41;0.70;99.90
33368;DHT22;19724;51.114;13.906;2023-03-08T02:15:09;0.80;99.90
33368;DHT22;19724;51.114;13.906;2023-03-08T02:17:37;0.70;99.90
33368;DHT22;19724;51.114;13.906;2023-03-08T02:22:39;0.70;99.90
33368;DHT22;19724;51.114;13.906;2023-03-08T02:25:26;0.60;99.90
33368;DHT22;19724;51.114;13.906;2023-03-08T02:27:53;0.70;99.90
33368;DHT22;19724;51.114;13.906;2023-03-08T02:30:28;0.70;99.90
33368;DHT22;19724;51.114;13.906;2023-03-08T02:32:54;0.80;99.90
33368;DHT22;19724;51.114;13.906;2023-03-08T02:37:58;0.70;99.90
33368;DHT22;19724;51.114;13.906;2023-03-08T02:40:24;0.70;99.90
33368;DHT22;19724;51.114;13.906;2023-03-08T02:42:50;0.70;99.90
33368;DHT22;19724;51.114;13.906;2023-03-08T02:45:16;0.70;99.90
33368;DHT22;19724;51.114;13.906;2023-03-08T02:47:41;0.70;99.90
33368;DHT22;19724;51.114;13.906;2023-03-08T02:50:08;0.70;99.90
33368;DHT22;19724;51.114;13.906;2023-03-08T02:52:34;0.70;99.90
33368;DHT22;19724;51.114;13.906;2023-03-08T02:54:59;0.70;99.90
33368;DHT22;19724;51.114;13.906;2023-03-08T02:57:25;0.70;99.90
33368;DHT22;19724;51.114;13.906;2023-03-08T02:59:52;0.70;99.90
33368;DHT22;19724;51.114;13.906;2023-03-08T03:02:17;0.70;99.90
33368;DHT22;19724;51.114;13.906;2023-03-08T03:04:44;0.70;99.90
33368;DHT22;19724;51.114;13.906;2023-03-08T03:07:10;0.80;99.90
33368;DHT22;19724;51.114;13.906;2023-03-08T03:09:36;0.80;99.90
33368;DHT22;19724;51.114;13.906;2023-03-08T03:12:03;0.80;99.90
33368;DHT22;19724;51.114;13.906;2023-03-08T03:14:28;0.80;99.90
33368;DHT22;19724;51.114;13.906;2023-03-08T03:16:54;0.80;99.90
33368;DHT22;19724;51.114;13.906;2023-03-08T03:19:20;0.80;99.90
33368;DHT22;19724;51.114;13.906;2023-03-08T03:21:47;0.80;99.90
33368;DHT22;19724;51.114;13.906;2023-03-08T03:24:13;0.80;99.90
33368;DHT22;19724;51.114;13.906;2023-03-08T03:26:40;0.80;99.90
33368;DHT22;19724;51.114;13.906;2023-03-08T03:29:05;0.80;99.90
33368;DHT22;19724;51.114;13.906;2023-03-08T03:31:31;0.80;99.90
33368;DHT22;19724;51.114;13.906;2023-03-08T03:33:57;0.80;99.90
33368;DHT22;19724;51.114;13.906;2023-03-08T03:36:23;0.80;99.90
33368;DHT22;19724;51.114;13.906;2023-03-08T03:38:49;0.80;99.90
33368;DHT22;19724;51.114;13.906;2023-03-08T03:41:17;0.80;99.90
33368;DHT22;19724;51.114;13.906;2023-03-08T03:43:43;0.80;99.90
33368;DHT22;19724;51.114;13.906;2023-03-08T03:46:12;0.80;99.90
33368;DHT22;19724;51.114;13.906;2023-03-08T03:48:38;0.80;99.90
33368;DHT22;19724;51.114;13.906;2023-03-08T03:51:09;0.80;99.90
33368;DHT22;19724;51.114;13.906;2023-03-08T03:53:35;0.80;99.90
33368;DHT22;19724;51.114;13.906;2023-03-08T03:56:22;0.80;99.90
33368;DHT22;19724;51.114;13.906;2023-03-08T03:58:50;0.80;99.90
33368;DHT22;19724;51.114;13.906;2023-03-08T04:01:24;0.80;99.90
33368;DHT22;19724;51.114;13.906;2023-03-08T04:03:50;0.80;99.90
33368;DHT22;19724;51.114;13.906;2023-03-08T04:06:19;0.80;99.90
33368;DHT22;19724;51.114;13.906;2023-03-08T04:08:45;0.80;99.90
33368;DHT22;19724;51.114;13.906;2023-03-08T04:11:14;0.80;99.90
33368;DHT22;19724;51.114;13.906;2023-03-08T04:13:41;0.80;99.90
33368;DHT22;19724;51.114;13.906;2023-03-08T04:16:15;0.80;99.90
33368;DHT22;19724;51.114;13.906;2023-03-08T04:18:42;0.80;99.90
33368;DHT22;19724;51.114;13.906;2023-03-08T04:21:08;0.80;99.90
33368;DHT22;19724;51.114;13.906;2023-03-08T04:23:34;0.80;99.90
33368;DHT22;19724;51.114;13.906;2023-03-08T04:26:01;0.80;99.90
33368;DHT22;19724;51.114;13.906;2023-03-08T04:28:27;0.80;99.90
33368;DHT22;19724;51.114;13.906;2023-03-08T04:30:53;0.80;99.90
33368;DHT22;19724;51.114;13.906;2023-03-08T04:33:19;0.80;99.90
33368;DHT22;19724;51.114;13.906;2023-03-08T04:35:45;0.80;99.90
33368;DHT22;19724;51.114;13.906;2023-03-08T04:38:10;0.80;99.90
33368;DHT22;19724;51.114;13.906;2023-03-08T04:40:38;0.80;99.90
33368;DHT22;19724;51.114;13.906;2023-03-08T04:43:24;0.80;99.90
33368;DHT22;19724;51.114;13.906;2023-03-08T04:45:49;0.80;99.90
33368;DHT22;19724;51.114;13.906;2023-03-08T04:48:15;0.80;99.90
33368;DHT22;19724;51.114;13.906;2023-03-08T04:50:41;0.90;99.90
33368;DHT22;19724;51.114;13.906;2023-03-08T04:53:07;0.90;99.90
33368;DHT22;19724;51.114;13.906;2023-03-08T04:55:35;0.90;99.90
33368;DHT22;19724;51.114;13.906;2023-03-08T04:58:01;0.90;99.90
33368;DHT22;19724;51.114;13.906;2023-03-08T05:00:27;0.90;99.90
33368;DHT22;19724;51.114;13.906;2023-03-08T05:02:52;0.90;99.90
33368;DHT22;19724;51.114;13.906;2023-03-08T05:05:18;0.90;99.90
33368;DHT22;19724;51.114;13.906;2023-03-08T05:07:44;0.90;99.90
33368;DHT22;19724;51.114;13.906;2023-03-08T05:10:10;0.90;99.90
33368;DHT22;19724;51.114;13.906;2023-03-08T05:12:35;0.90;99.90
33368;DHT22;19724;51.114;13.906;2023-03-08T05:15:03;0.90;99.90
33368;DHT22;19724;51.114;13.906;2023-03-08T05:17:28;0.90;99.90
33368;DHT22;19724;51.114;13.906;2023-03-08T05:19:54;0.90;99.90
33368;DHT22;19724;51.114;13.906;2023-03-08T05:22:20;0.90;99.90
33368;DHT22;19724;51.114;13.906;2023-03-08T05:24:46;0.90;99.90
33368;DHT22;19724;51.114;13.906;2023-03-08T05:27:12;0.90;99.90
33368;DHT22;19724;51.114;13.906;2023-03-08T05:29:38;1.00;99.90
33368;DHT22;19724;51.114;13.906;2023-03-08T05:32:04;1.00;99.90
33368;DHT22;19724;51.114;13.906;2023-03-08T05:34:30;1.00;99.90
33368;DHT22;19724;51.114;13.906;2023-03-08T05:36:55;1.00;99.90
33368;DHT22;19724;51.114;13.906;2023-03-08T05:39:21;1.00;99.90
33368;DHT22;19724;51.114;13.906;2023-03-08T05:41:47;1.00;99.90
33368;DHT22;19724;51.114;13.906;2023-03-08T05:44:13;1.00;99.90
33368;DHT22;19724;51.114;13.906;2023-03-08T05:46:38;1.00;99.90
33368;DHT22;19724;51.114;13.906;2023-03-08T05:49:05;1.00;99.90
33368;DHT22;19724;51.114;13.906;2023-03-08T05:51:32;1.00;99.90
33368;DHT22;19724;51.114;13.906;2023-03-08T05:53:57;1.00;99.90
33368;DHT22;19724;51.114;13.906;2023-03-08T05:56:23;1.00;99.90
33368;DHT22;19724;51.114;13.906;2023-03-08T05:58:52;1.00;99.90
33368;DHT22;19724;51.114;13.906;2023-03-08T06:01:18;1.10;99.90
33368;DHT22;19724;51.114;13.906;2023-03-08T06:03:46;1.10;99.90
33368;DHT22;19724;51.114;13.906;2023-03-08T06:06:16;1.10;99.90
33368;DHT22;19724;51.114;13.906;2023-03-08T06:08:42;1.10;99.90
33368;DHT22;19724;51.114;13.906;2023-03-08T06:11:08;1.10;99.90
33368;DHT22;19724;51.114;13.906;2023-03-08T06:13:34;1.10;99.90
33368;DHT22;19724;51.114;13.906;2023-03-08T06:16:00;1.10;99.90
33368;DHT22;19724;51.114;13.906;2023-03-08T06:18:27;1.20;99.90
33368;DHT22;19724;51.114;13.906;2023-03-08T06:23:26;1.20;99.90
33368;DHT22;19724;51.114;13.906;2023-03-08T06:25:52;1.10;99.90
33368;DHT22;19724;51.114;13.906;2023-03-08T06:28:17;1.10;99.90
33368;DHT22;19724;51.114;13.906;2023-03-08T06:30:43;1.10;99.90
33368;DHT22;19724;51.114;13.906;2023-03-08T06:33:09;1.10;99.90
33368;DHT22;19724;51.114;13.906;2023-03-08T06:35:34;1.10;99.90
33368;DHT22;19724;51.114;13.906;2023-03-08T06:38:02;1.20;99.90
33368;DHT22;19724;51.114;13.906;2023-03-08T06:40:28;1.10;99.90
33368;DHT22;19724;51.114;13.906;2023-03-08T06:42:53;1.20;99.90
33368;DHT22;19724;51.114;13.906;2023-03-08T06:45:19;1.20;99.90
33368;DHT22;19724;51.114;13.906;2023-03-08T06:47:46;1.20;99.90
33368;DHT22;19724;51.114;13.906;2023-03-08T06:50:12;1.20;99.90
33368;DHT22;19724;51.114;13.906;2023-03-08T06:52:38;1.30;99.90
33368;DHT22;19724;51.114;13.906;2023-03-08T06:55:04;1.30;99.90
33368;DHT22;19724;51.114;13.906;2023-03-08T06:57:30;1.30;99.90
33368;DHT22;19724;51.114;13.906;2023-03-08T06:59:55;1.40;99.90
33368;DHT22;19724;51.114;13.906;2023-03-08T07:02:21;1.40;99.90
33368;DHT22;19724;51.114;13.906;2023-03-08T07:04:46;1.50;99.90
33368;DHT22;19724;51.114;13.906;2023-03-08T07:07:12;1.50;99.90
33368;DHT22;19724;51.114;13.906;2023-03-08T07:09:38;1.50;99.90
33368;DHT22;19724;51.114;13.906;2023-03-08T07:12:03;1.50;99.90
33368;DHT22;19724;51.114;13.906;2023-03-08T07:14:29;1.60;99.90
33368;DHT22;19724;51.114;13.906;2023-03-08T07:16:55;1.60;99.90
33368;DHT22;19724;51.114;13.906;2023-03-08T07:19:20;1.70;99.90
33368;DHT22;19724;51.114;13.906;2023-03-08T07:21:46;1.80;99.90
33368;DHT22;19724;51.114;13.906;2023-03-08T07:24:12;1.80;99.90
33368;DHT22;19724;51.114;13.906;2023-03-08T07:26:38;1.80;99.90
33368;DHT22;19724;51.114;13.906;2023-03-08T07:29:04;1.80;99.90
33368;DHT22;19724;51.114;13.906;2023-03-08T07:31:30;1.80;99.90
33368;DHT22;19724;51.114;13.906;2023-03-08T07:33:57;1.70;99.90
33368;DHT22;19724;51.114;13.906;2023-03-08T07:36:23;1.80;99.90
33368;DHT22;19724;51.114;13.906;2023-03-08T07:38:50;1.80;99.90
33368;DHT22;19724;51.114;13.906;2023-03-08T07:41:15;1.80;99.90
33368;DHT22;19724;51.114;13.906;2023-03-08T07:43:42;1.80;99.90
33368;DHT22;19724;51.114;13.906;2023-03-08T07:46:07;1.90;99.90
33368;DHT22;19724;51.114;13.906;2023-03-08T07:48:33;1.90;99.90
33368;DHT22;19724;51.114;13.906;2023-03-08T07:51:07;1.90;99.90
33368;DHT22;19724;51.114;13.906;2023-03-08T07:53:35;2.00;99.90
33368;DHT22;19724;51.114;13.906;2023-03-08T07:56:02;2.00;99.90
33368;DHT22;19724;51.114;13.906;2023-03-08T07:58:28;2.10;99.90
33368;DHT22;19724;51.114;13.906;2023-03-08T08:00:54;2.10;99.90
33368;DHT22;19724;51.114;13.906;2023-03-08T08:03:21;2.10;99.90
33368;DHT22;19724;51.114;13.906;2023-03-08T08:05:47;2.20;99.90
33368;DHT22;19724;51.114;13.906;2023-03-08T08:08:13;2.20;99.90
33368;DHT22;19724;51.114;13.906;2023-03-08T08:10:41;2.30;99.90
33368;DHT22;19724;51.114;13.906;2023-03-08T08:13:08;2.30;99.90
33368;DHT22;19724;51.114;13.906;2023-03-08T08:15:34;2.30;99.90
33368;DHT22;19724;51.114;13.906;2023-03-08T08:18:02;2.30;99.90
33368;DHT22;19724;51.114;13.906;2023-03-08T08:20:28;2.30;99.90
33368;DHT22;19724;51.114;13.906;2023-03-08T08:22:54;2.40;99.90
33368;DHT22;19724;51.114;13.906;2023-03-08T08:25:20;2.40;99.90
33368;DHT22;19724;51.114;13.906;2023-03-08T08:27:46;2.50;99.90
33368;DHT22;19724;51.114;13.906;2023-03-08T08:30:13;2.40;99.90
33368;DHT22;19724;51.114;13.906;2023-03-08T08:32:39;2.50;99.90
33368;DHT22;19724;51.114;13.906;2023-03-08T08:35:05;2.60;99.90
33368;DHT22;19724;51.114;13.906;2023-03-08T08:37:32;2.60;99.90
33368;DHT22;19724;51.114;13.906;2023-03-08T08:39:58;2.70;99.90
33368;DHT22;19724;51.114;13.906;2023-03-08T08:42:24;2.80;99.90
33368;DHT22;19724;51.114;13.906;2023-03-08T08:44:51;2.80;99.90
33368;DHT22;19724;51.114;13.906;2023-03-08T08:47:17;2.70;99.90
33368;DHT22;19724;51.114;13.906;2023-03-08T08:49:43;2.80;99.90
33368;DHT22;19724;51.114;13.906;2023-03-08T08:52:08;2.90;99.90
33368;DHT22;19724;51.114;13.906;2023-03-08T08:54:34;2.90;99.90
33368;DHT22;19724;51.114;13.906;2023-03-08T08:56:59;2.80;99.90
33368;DHT22;19724;51.114;13.906;2023-03-08T08:59:25;3.00;99.90
33368;DHT22;19724;51.114;13.906;2023-03-08T09:01:50;2.80;99.90
33368;DHT22;19724;51.114;13.906;2023-03-08T09:04:16;2.80;99.90
33368;DHT22;19724;51.114;13.906;2023-03-08T09:06:41;2.80;99.90
33368;DHT22;19724;51.114;13.906;2023-03-08T09:09:07;2.80;99.90
33368;DHT22;19724;51.114;13.906;2023-03-08T09:11:33;2.80;99.90
33368;DHT22;19724;51.114;13.906;2023-03-08T09:13:59;2.80;99.90
33368;DHT22;19724;51.114;13.906;2023-03-08T09:16:28;2.80;99.90
33368;DHT22;19724;51.114;13.906;2023-03-08T09:18:56;2.80;99.90
33368;DHT22;19724;51.114;13.906;2023-03-08T09:21:23;2.70;99.90
33368;DHT22;19724;51.114;13.906;2023-03-08T09:23:48;2.70;99.90
33368;DHT22;19724;51.114;13.906;2023-03-08T09:26:16;2.70;99.90
33368;DHT22;19724;51.114;13.906;2023-03-08T09:28:42;2.70;99.90
33368;DHT22;19724;51.114;13.906;2023-03-08T09:31:10;2.70;99.90
33368;DHT22;19724;51.114;13.906;2023-03-08T09:33:41;2.70;99.90
33368;DHT22;19724;51.114;13.906;2023-03-08T09:36:07;2.70;99.90
33368;DHT22;19724;51.114;13.906;2023-03-08T09:38:33;2.60;99.90
33368;DHT22;19724;51.114;13.906;2023-03-08T09:49:20;2.60;99.90
33368;DHT22;19724;51.114;13.906;2023-03-08T09:51:50;2.60;99.90
33368;DHT22;19724;51.114;13.906;2023-03-08T09:54:20;2.50;99.90
33368;DHT22;19724;51.114;13.906;2023-03-08T09:56:49;2.50;99.90
33368;DHT22;19724;51.114;13.906;2023-03-08T09:59:24;2.50;99.90
33368;DHT22;19724;51.114;13.906;2023-03-08T10:02:19;2.50;99.90
33368;DHT22;19724;51.114;13.906;2023-03-08T10:05:03;2.60;99.90
33368;DHT22;19724;51.114;13.906;2023-03-08T10:08:10;2.50;99.90
33368;DHT22;19724;51.114;13.906;2023-03-08T10:10:53;2.70;99.90
33368;DHT22;19724;51.114;13.906;2023-03-08T10:13:43;2.80;99.90
33368;DHT22;19724;51.114;13.906;2023-03-08T10:16:43;2.80;99.90
33368;DHT22;19724;51.114;13.906;2023-03-08T10:21:42;2.70;99.90
33368;DHT22;19724;51.114;13.906;2023-03-08T10:24:18;2.70;99.90
33368;DHT22;19724;51.114;13.906;2023-03-08T10:26:51;2.70;99.90
33368;DHT22;19724;51.114;13.906;2023-03-08T10:29:16;2.70;99.90
33368;DHT22;19724;51.114;13.906;2023-03-08T10:31:43;2.70;99.90
33368;DHT22;19724;51.114;13.906;2023-03-08T10:34:15;2.70;99.90
33368;DHT22;19724;51.114;13.906;2023-03-08T10:36:50;2.70;99.90
33368;DHT22;19724;51.114;13.906;2023-03-08T10:39:16;2.60;99.90
33368;DHT22;19724;51.114;13.906;2023-03-08T10:41:53;2.60;99.90
33368;DHT22;19724;51.114;13.906;2023-03-08T10:44:43;2.50;99.90
33368;DHT22;19724;51.114;13.906;2023-03-08T10:49:45;2.40;99.90
33368;DHT22;19724;51.114;13.906;2023-03-08T10:52:32;2.40;99.90
33368;DHT22;19724;51.114;13.906;2023-03-08T10:55:05;2.40;99.90
33368;DHT22;19724;51.114;13.906;2023-03-08T10:57:32;2.40;99.90
33368;DHT22;19724;51.114;13.906;2023-03-08T11:00:20;2.40;99.90
33368;DHT22;19724;51.114;13.906;2023-03-08T11:02:48;2.50;99.90
33368;DHT22;19724;51.114;13.906;2023-03-08T11:05:24;2.60;99.90
33368;DHT22;19724;51.114;13.906;2023-03-08T11:07:58;2.60;99.90
33368;DHT22;19724;51.114;13.906;2023-03-08T11:10:26;2.70;99.90
33368;DHT22;19724;51.114;13.906;2023-03-08T11:13:02;2.70;99.90
33368;DHT22;19724;51.114;13.906;2023-03-08T11:15:31;2.70;99.90
33368;DHT22;19724;51.114;13.906;2023-03-08T11:18:14;2.70;99.90
33368;DHT22;19724;51.114;13.906;2023-03-08T11:20:46;2.70;99.90
33368;DHT22;19724;51.114;13.906;2023-03-08T11:23:34;2.60;99.90
33368;DHT22;19724;51.114;13.906;2023-03-08T11:26:14;2.70;99.90
33368;DHT22;19724;51.114;13.906;2023-03-08T11:29:21;2.70;99.90
33368;DHT22;19724;51.114;13.906;2023-03-08T11:31:55;2.80;99.90
33368;DHT22;19724;51.114;13.906;2023-03-08T11:35:04;2.80;99.90
33368;DHT22;19724;51.114;13.906;2023-03-08T11:37:48;2.70;99.90
33368;DHT22;19724;51.114;13.906;2023-03-08T11:46:34;2.80;99.90
33368;DHT22;19724;51.114;13.906;2023-03-08T11:49:15;2.80;99.90
33368;DHT22;19724;51.114;13.906;2023-03-08T11:55:22;2.80;99.90
33368;DHT22;19724;51.114;13.906;2023-03-08T11:57:55;2.80;99.90
33368;DHT22;19724;51.114;13.906;2023-03-08T12:00:31;2.80;99.90
33368;DHT22;19724;51.114;13.906;2023-03-08T12:03:03;2.80;99.90
33368;DHT22;19724;51.114;13.906;2023-03-08T12:05:39;2.80;99.90
33368;DHT22;19724;51.114;13.906;2023-03-08T12:08:19;2.90;99.90
33368;DHT22;19724;51.114;13.906;2023-03-08T12:13:38;2.90;99.90
33368;DHT22;19724;51.114;13.906;2023-03-08T12:16:14;2.90;99.90
33368;DHT22;19724;51.114;13.906;2023-03-08T12:18:52;3.00;99.90
33368;DHT22;19724;51.114;13.906;2023-03-08T12:21:37;3.00;99.90
33368;DHT22;19724;51.114;13.906;2023-03-08T12:24:26;3.10;99.90
33368;DHT22;19724;51.114;13.906;2023-03-08T12:27:22;3.10;99.90
33368;DHT22;19724;51.114;13.906;2023-03-08T12:32:26;3.10;99.90
33368;DHT22;19724;51.114;13.906;2023-03-08T12:38:01;3.00;99.90
33368;DHT22;19724;51.114;13.906;2023-03-08T12:40:52;3.10;99.90
33368;DHT22;19724;51.114;13.906;2023-03-08T12:45:47;3.10;99.90
33368;DHT22;19724;51.114;13.906;2023-03-08T12:48:28;3.10;99.90
33368;DHT22;19724;51.114;13.906;2023-03-08T12:58:53;3.20;99.90
33368;DHT22;19724;51.114;13.906;2023-03-08T13:01:31;3.20;99.90
33368;DHT22;19724;51.114;13.906;2023-03-08T13:03:58;3.20;99.90
33368;DHT22;19724;51.114;13.906;2023-03-08T13:09:42;3.20;99.90
33368;DHT22;19724;51.114;13.906;2023-03-08T13:19:58;3.30;99.90
33368;DHT22;19724;51.114;13.906;2023-03-08T13:22:41;3.30;99.90
33368;DHT22;19724;51.114;13.906;2023-03-08T13:30:30;3.40;99.90
33368;DHT22;19724;51.114;13.906;2023-03-08T13:32:57;3.40;99.90
33368;DHT22;19724;51.114;13.906;2023-03-08T13:35:23;3.40;99.90
33368;DHT22;19724;51.114;13.906;2023-03-08T13:37:58;3.40;99.90
33368;DHT22;19724;51.114;13.906;2023-03-08T13:40:25;3.50;99.90
33368;DHT22;19724;51.114;13.906;2023-03-08T13:42:58;3.40;99.90
33368;DHT22;19724;51.114;13.906;2023-03-08T13:45:28;3.40;99.90
33368;DHT22;19724;51.114;13.906;2023-03-08T13:47:56;3.50;99.90
33368;DHT22;19724;51.114;13.906;2023-03-08T13:50:29;3.50;99.90
33368;DHT22;19724;51.114;13.906;2023-03-08T13:52:55;3.50;99.90
33368;DHT22;19724;51.114;13.906;2023-03-08T13:55:45;3.60;99.90
33368;DHT22;19724;51.114;13.906;2023-03-08T13:58:31;3.50;99.90
33368;DHT22;19724;51.114;13.906;2023-03-08T14:01:15;3.50;99.90
33368;DHT22;19724;51.114;13.906;2023-03-08T14:03:42;3.50;99.90
33368;DHT22;19724;51.114;13.906;2023-03-08T14:06:23;3.50;99.90
33368;DHT22;19724;51.114;13.906;2023-03-08T14:08:49;3.50;99.90
33368;DHT22;19724;51.114;13.906;2023-03-08T14:11:21;3.50;99.90
33368;DHT22;19724;51.114;13.906;2023-03-08T14:13:50;3.50;99.90
33368;DHT22;19724;51.114;13.906;2023-03-08T14:16:34;3.50;99.90
33368;DHT22;19724;51.114;13.906;2023-03-08T14:22:33;3.50;99.90
33368;DHT22;19724;51.114;13.906;2023-03-08T14:24:34;3.50;99.90
33368;DHT22;19724;51.114;13.906;2023-03-08T14:29:43;3.50;99.90
33368;DHT22;19724;51.114;13.906;2023-03-08T14:34:42;3.60;99.90
33368;DHT22;19724;51.114;13.906;2023-03-08T14:37:24;3.60;99.90
33368;DHT22;19724;51.114;13.906;2023-03-08T14:40:21;3.60;99.90
33368;DHT22;19724;51.114;13.906;2023-03-08T14:42:51;3.60;99.90
33368;DHT22;19724;51.114;13.906;2023-03-08T14:45:31;3.70;99.90
33368;DHT22;19724;51.114;13.906;2023-03-08T14:50:54;3.70;99.90
33368;DHT22;19724;51.114;13.906;2023-03-08T14:53:29;3.60;99.90
33368;DHT22;19724;51.114;13.906;2023-03-08T14:55:57;3.60;99.90
33368;DHT22;19724;51.114;13.906;2023-03-08T14:58:27;3.60;99.90
33368;DHT22;19724;51.114;13.906;2023-03-08T15:00:57;3.60;99.90
33368;DHT22;19724;51.114;13.906;2023-03-08T15:03:23;3.50;99.90
33368;DHT22;19724;51.114;13.906;2023-03-08T15:05:49;3.50;99.90
33368;DHT22;19724;51.114;13.906;2023-03-08T15:08:15;3.50;99.90
33368;DHT22;19724;51.114;13.906;2023-03-08T15:10:42;3.50;99.90
33368;DHT22;19724;51.114;13.906;2023-03-08T15:13:14;3.50;99.90
33368;DHT22;19724;51.114;13.906;2023-03-08T15:15:40;3.50;99.90
33368;DHT22;19724;51.114;13.906;2023-03-08T15:18:05;3.50;99.90
33368;DHT22;19724;51.114;13.906;2023-03-08T15:20:31;3.50;99.90
33368;DHT22;19724;51.114;13.906;2023-03-08T15:23:03;3.30;99.90
33368;DHT22;19724;51.114;13.906;2023-03-08T15:25:37;3.40;99.90
33368;DHT22;19724;51.114;13.906;2023-03-08T15:28:03;3.40;99.90
33368;DHT22;19724;51.114;13.906;2023-03-08T15:30:30;3.40;99.90
33368;DHT22;19724;51.114;13.906;2023-03-08T15:32:56;3.40;99.90
33368;DHT22;19724;51.114;13.906;2023-03-08T15:35:23;3.40;99.90
33368;DHT22;19724;51.114;13.906;2023-03-08T15:37:49;3.40;99.90
33368;DHT22;19724;51.114;13.906;2023-03-08T15:40:21;3.30;99.90
33368;DHT22;19724;51.114;13.906;2023-03-08T15:42:47;3.30;99.90
33368;DHT22;19724;51.114;13.906;2023-03-08T15:45:13;3.20;99.90
33368;DHT22;19724;51.114;13.906;2023-03-08T15:47:39;3.30;99.90
33368;DHT22;19724;51.114;13.906;2023-03-08T15:50:11;3.30;99.90
33368;DHT22;19724;51.114;13.906;2023-03-08T15:52:37;3.30;99.90
33368;DHT22;19724;51.114;13.906;2023-03-08T15:55:03;3.20;99.90
33368;DHT22;19724;51.114;13.906;2023-03-08T15:57:28;3.20;99.90
33368;DHT22;19724;51.114;13.906;2023-03-08T15:59:54;3.10;99.90
33368;DHT22;19724;51.114;13.906;2023-03-08T16:02:19;3.20;99.90
33368;DHT22;19724;51.114;13.906;2023-03-08T16:04:45;3.10;99.90
33368;DHT22;19724;51.114;13.906;2023-03-08T16:07:17;3.10;99.90
33368;DHT22;19724;51.114;13.906;2023-03-08T16:09:44;3.10;99.90
33368;DHT22;19724;51.114;13.906;2023-03-08T16:12:10;3.10;99.90
33368;DHT22;19724;51.114;13.906;2023-03-08T16:14:36;3.10;99.90
33368;DHT22;19724;51.114;13.906;2023-03-08T16:17:02;3.00;99.90
33368;DHT22;19724;51.114;13.906;2023-03-08T16:19:32;3.00;99.90
33368;DHT22;19724;51.114;13.906;2023-03-08T16:21:59;3.00;99.90
33368;DHT22;19724;51.114;13.906;2023-03-08T16:24:25;3.00;99.90
33368;DHT22;19724;51.114;13.906;2023-03-08T16:26:50;3.00;99.90
33368;DHT22;19724;51.114;13.906;2023-03-08T16:29:16;3.00;99.90
33368;DHT22;19724;51.114;13.906;2023-03-08T16:31:41;3.00;99.90
33368;DHT22;19724;51.114;13.906;2023-03-08T16:34:09;3.00;99.90
33368;DHT22;19724;51.114;13.906;2023-03-08T16:36:35;3.00;99.90
33368;DHT22;19724;51.114;13.906;2023-03-08T16:39:01;3.00;99.90
33368;DHT22;19724;51.114;13.906;2023-03-08T16:41:27;3.00;99.90
33368;DHT22;19724;51.114;13.906;2023-03-08T16:43:54;2.90;99.90
33368;DHT22;19724;51.114;13.906;2023-03-08T16:46:24;2.90;99.90
33368;DHT22;19724;51.114;13.906;2023-03-08T16:48:50;2.90;99.90
33368;DHT22;19724;51.114;13.906;2023-03-08T16:51:20;2.90;99.90
33368;DHT22;19724;51.114;13.906;2023-03-08T16:53:46;2.90;99.90
33368;DHT22;19724;51.114;13.906;2023-03-08T16:56:41;2.90;99.90
33368;DHT22;19724;51.114;13.906;2023-03-08T16:59:10;2.90;99.90
33368;DHT22;19724;51.114;13.906;2023-03-08T17:01:36;2.90;99.90